Time;durP1;ratioP1;P1;durP2;ratioP2;P2;SDS_P1;SDS_P2;PMS_P1;PMS_P2;Temp;Humidity;BMP_temperature;BMP_pressure;BME280_temperature;BME280_humidity;BME280_pressure;Samples;Min_cycle;Max_cycle;Signal;HPM_P1;HPM_P2
2023/08/11 00:02:09;;;;;;;9.82;6.40;;;17.60;99.90;;;;;;5088226;28;20590;-82
2023/08/11 00:04:57;;;;;;;9.10;6.47;;;17.50;99.90;;;;;;5083364;28;20226;-83
2023/08/11 00:07:50;;;;;;;10.23;6.15;;;17.60;99.90;;;;;;5074825;28;20232;-82
2023/08/11 00:10:39;;;;;;;9.95;6.10;;;17.50;99.90;;;;;;5072462;28;20598;-80
2023/08/11 00:13:27;;;;;;;10.05;6.13;;;17.60;99.90;;;;;;5075885;28;20235;-76
2023/08/11 00:16:17;;;;;;;10.48;6.18;;;17.50;99.90;;;;;;5082886;28;20323;-77
2023/08/11 00:19:05;;;;;;;11.75;6.20;;;17.40;99.90;;;;;;5084535;28;20275;-75
2023/08/11 00:21:57;;;;;;;10.55;5.90;;;17.40;99.90;;;;;;5078312;28;20866;-75
2023/08/11 00:24:48;;;;;;;11.85;6.22;;;17.30;99.90;;;;;;5074479;28;20314;-75
2023/08/11 00:27:37;;;;;;;11.25;6.78;;;17.30;99.90;;;;;;5077722;28;20262;-81
2023/08/11 00:30:26;;;;;;;11.00;6.30;;;17.30;99.90;;;;;;5068507;28;20567;-74
2023/08/11 00:33:15;;;;;;;11.48;6.18;;;17.20;99.90;;;;;;5077718;28;20257;-73
2023/08/11 00:36:04;;;;;;;8.18;5.80;;;17.20;99.90;;;;;;5078601;28;20804;-73
2023/08/11 00:39:00;;;;;;;9.45;5.97;;;17.30;99.90;;;;;;5062892;28;20595;-81
2023/08/11 00:41:50;;;;;;;8.63;6.00;;;17.30;99.90;;;;;;5074654;28;20219;-83
2023/08/11 00:44:39;;;;;;;9.38;5.60;;;17.20;99.90;;;;;;5081761;28;20224;-83
2023/08/11 00:47:28;;;;;;;10.68;6.07;;;17.10;99.90;;;;;;5078644;28;20219;-82
2023/08/11 00:50:17;;;;;;;10.02;6.57;;;17.20;99.90;;;;;;5064335;28;20224;-83
2023/08/11 00:53:06;;;;;;;9.70;5.90;;;17.20;99.90;;;;;;5063673;28;20270;-75
2023/08/11 00:55:55;;;;;;;8.48;5.93;;;17.20;99.90;;;;;;5074390;28;20243;-73
2023/08/11 00:58:47;;;;;;;12.00;6.25;;;17.20;99.90;;;;;;5079871;28;20276;-73
2023/08/11 01:01:36;;;;;;;8.68;5.85;;;17.20;99.90;;;;;;5078466;28;20226;-73
2023/08/11 01:04:26;;;;;;;8.07;5.90;;;17.20;99.90;;;;;;5066264;28;20246;-73
2023/08/11 01:07:22;;;;;;;8.65;6.00;;;17.20;99.90;;;;;;5067623;28;20238;-76
2023/08/11 01:10:18;;;;;;;9.13;6.03;;;17.10;99.90;;;;;;5063608;28;20236;-84
2023/08/11 01:13:14;;;;;;;9.25;5.70;;;17.10;99.90;;;;;;5067262;28;20786;-81
2023/08/11 01:16:05;;;;;;;9.10;5.82;;;17.10;99.90;;;;;;5073575;28;20215;-81
2023/08/11 01:18:57;;;;;;;8.65;6.00;;;17.10;99.90;;;;;;5074716;28;20311;-79
2023/08/11 01:21:48;;;;;;;11.13;6.10;;;17.10;99.90;;;;;;5063979;28;20220;-78
2023/08/11 01:24:40;;;;;;;9.45;5.78;;;16.90;99.90;;;;;;5052213;28;20226;-79
2023/08/11 01:27:30;;;;;;;10.27;5.97;;;16.90;99.90;;;;;;5083285;28;20224;-79
2023/08/11 01:30:19;;;;;;;10.70;5.45;;;16.90;99.90;;;;;;5065946;28;20231;-80
2023/08/11 01:33:08;;;;;;;12.13;6.22;;;16.90;99.90;;;;;;5071966;28;20307;-79
2023/08/11 01:35:57;;;;;;;9.18;5.55;;;16.90;99.90;;;;;;5087980;28;20233;-78
2023/08/11 01:38:46;;;;;;;9.05;5.65;;;16.90;99.90;;;;;;5082811;28;20329;-76
2023/08/11 01:41:37;;;;;;;12.27;6.20;;;16.90;99.90;;;;;;5073219;28;20228;-72
2023/08/11 01:44:27;;;;;;;8.15;5.10;;;16.80;99.90;;;;;;5092359;27;20215;-73
2023/08/11 01:47:18;;;;;;;8.77;5.45;;;16.80;99.90;;;;;;5077626;28;20306;-73
2023/08/11 01:50:08;;;;;;;7.03;5.47;;;16.90;99.90;;;;;;5075530;28;20215;-73
2023/08/11 01:52:58;;;;;;;10.18;5.80;;;16.70;99.90;;;;;;5080516;28;20224;-74
2023/08/11 01:55:49;;;;;;;6.90;5.07;;;16.80;99.90;;;;;;5072621;28;20349;-75
2023/08/11 01:58:39;;;;;;;8.32;5.20;;;16.80;99.90;;;;;;5091720;27;20226;-73
2023/08/11 02:01:28;;;;;;;8.95;5.47;;;16.70;99.90;;;;;;5092440;28;20869;-73
2023/08/11 02:04:17;;;;;;;8.10;6.00;;;16.70;99.90;;;;;;5080038;28;20239;-72
2023/08/11 02:07:06;;;;;;;8.63;5.47;;;16.60;99.90;;;;;;5082005;28;20231;-71
2023/08/11 02:09:56;;;;;;;13.32;5.97;;;16.50;99.90;;;;;;5066228;28;20733;-72
2023/08/11 02:12:45;;;;;;;9.10;5.90;;;16.50;99.90;;;;;;5071956;28;20299;-72
2023/08/11 02:15:35;;;;;;;12.75;5.95;;;16.50;99.90;;;;;;5069228;28;20228;-72
2023/08/11 02:18:25;;;;;;;9.18;5.57;;;16.60;99.90;;;;;;5074742;28;20498;-73
2023/08/11 02:21:14;;;;;;;8.15;5.70;;;16.60;99.90;;;;;;5077745;28;20232;-72
2023/08/11 02:24:04;;;;;;;7.80;5.53;;;16.50;99.90;;;;;;5061482;28;20742;-72
2023/08/11 02:26:54;;;;;;;10.18;5.97;;;16.50;99.90;;;;;;5076710;28;20226;-75
2023/08/11 02:29:44;;;;;;;7.00;5.40;;;16.50;99.90;;;;;;5080584;28;20223;-76
2023/08/11 02:32:35;;;;;;;12.82;6.15;;;16.60;99.90;;;;;;5070032;28;20227;-76
2023/08/11 02:35:24;;;;;;;11.05;5.82;;;16.50;99.90;;;;;;5080519;28;20326;-76
2023/08/11 02:38:13;;;;;;;8.93;5.85;;;16.40;99.90;;;;;;5087834;28;20240;-76
2023/08/11 02:41:02;;;;;;;9.15;5.88;;;16.40;99.90;;;;;;5094050;28;20464;-77
2023/08/11 02:43:51;;;;;;;10.18;6.20;;;16.40;99.90;;;;;;5067095;28;20224;-74
2023/08/11 02:46:41;;;;;;;7.72;6.05;;;16.40;99.90;;;;;;5061933;28;20299;-74
2023/08/11 02:49:32;;;;;;;8.90;5.82;;;16.40;99.90;;;;;;5082267;28;20219;-74
2023/08/11 02:52:21;;;;;;;13.02;6.18;;;16.30;99.90;;;;;;5062789;28;20231;-74
2023/08/11 02:55:11;;;;;;;9.45;6.03;;;16.30;99.90;;;;;;5067370;28;20227;-74
2023/08/11 02:58:00;;;;;;;11.35;6.05;;;16.10;99.90;;;;;;5073093;28;20266;-72
2023/08/11 03:00:50;;;;;;;10.10;5.57;;;16.10;99.90;;;;;;5078172;28;20222;-75
2023/08/11 03:03:39;;;;;;;7.57;5.53;;;16.20;99.90;;;;;;5082115;28;20226;-74
2023/08/11 03:06:30;;;;;;;9.80;5.85;;;16.20;99.90;;;;;;5038302;28;20219;-74
2023/08/11 03:09:19;;;;;;;11.00;6.03;;;16.20;99.90;;;;;;5081080;28;20227;-74
2023/08/11 03:12:08;;;;;;;9.23;5.70;;;16.20;99.90;;;;;;5070539;28;20238;-74
2023/08/11 03:14:58;;;;;;;10.90;6.57;;;16.10;99.90;;;;;;5093738;27;20219;-74
2023/08/11 03:17:49;;;;;;;10.13;5.97;;;16.10;99.90;;;;;;5065332;28;20251;-75
2023/08/11 03:20:37;;;;;;;9.93;6.00;;;16.00;99.90;;;;;;5071643;28;20220;-75
2023/08/11 03:23:28;;;;;;;9.48;5.57;;;16.00;99.90;;;;;;5074082;28;20226;-78
2023/08/11 03:26:18;;;;;;;9.35;6.25;;;16.00;99.90;;;;;;5096609;27;20635;-76
2023/08/11 03:29:07;;;;;;;11.70;7.00;;;16.10;99.90;;;;;;5064773;28;20219;-75
2023/08/11 03:31:56;;;;;;;8.32;5.80;;;16.00;99.90;;;;;;5074091;28;20310;-74
2023/08/11 03:34:48;;;;;;;9.90;6.35;;;16.10;99.90;;;;;;5075162;28;20219;-76
2023/08/11 03:37:37;;;;;;;10.52;5.78;;;16.10;99.90;;;;;;5088193;28;20214;-76
2023/08/11 03:40:27;;;;;;;10.38;6.28;;;16.00;99.90;;;;;;5064924;28;20707;-76
2023/08/11 03:43:17;;;;;;;12.32;6.18;;;15.90;99.90;;;;;;5066720;28;20312;-74
2023/08/11 03:46:06;;;;;;;12.68;6.70;;;16.10;99.90;;;;;;5064595;28;20223;-73
2023/08/11 03:48:58;;;;;;;11.75;6.93;;;16.10;99.90;;;;;;5061384;28;20224;-71
2023/08/11 03:51:47;;;;;;;11.95;6.32;;;16.10;99.90;;;;;;5061293;28;20266;-76
2023/08/11 03:54:37;;;;;;;13.75;5.93;;;16.20;99.90;;;;;;5069047;28;20310;-75
2023/08/11 03:57:37;;;;;;;9.10;6.22;;;16.20;99.90;;;;;;5070075;28;20227;-76
2023/08/11 04:00:28;;;;;;;10.50;6.25;;;16.20;99.90;;;;;;5075161;28;20224;-75
2023/08/11 04:03:31;;;;;;;9.82;6.32;;;16.20;99.90;;;;;;5066957;28;20219;-74
2023/08/11 04:06:20;;;;;;;9.77;6.35;;;16.20;99.90;;;;;;5080954;28;20829;-77
2023/08/11 04:09:09;;;;;;;9.77;6.05;;;16.30;99.90;;;;;;5072729;28;20231;-78
2023/08/11 04:11:58;;;;;;;9.25;6.10;;;16.20;99.90;;;;;;5067233;28;20306;-76
2023/08/11 04:14:49;;;;;;;10.30;6.15;;;16.40;99.90;;;;;;5048640;28;20307;-82
2023/08/11 04:17:38;;;;;;;12.27;6.25;;;16.50;99.90;;;;;;5068486;28;20234;-83
2023/08/11 04:20:28;;;;;;;9.00;5.32;;;16.60;99.90;;;;;;5050441;28;20220;-81
2023/08/11 04:23:17;;;;;;;8.25;5.60;;;16.60;99.90;;;;;;5042738;28;20228;-80
2023/08/11 04:26:06;;;;;;;9.43;5.57;;;16.60;99.90;;;;;;5042377;28;20304;-76
2023/08/11 04:28:57;;;;;;;8.85;6.10;;;16.70;99.90;;;;;;5070505;28;20239;-77
2023/08/11 04:31:47;;;;;;;10.07;5.47;;;16.80;99.90;;;;;;5050325;28;20599;-79
2023/08/11 04:34:38;;;;;;;10.13;5.50;;;16.70;99.90;;;;;;5047621;28;20278;-76
2023/08/11 04:37:27;;;;;;;8.82;5.35;;;16.90;99.90;;;;;;5049464;28;20212;-79
2023/08/11 04:40:17;;;;;;;8.80;5.28;;;16.90;99.90;;;;;;5055862;28;20221;-74
2023/08/11 04:43:09;;;;;;;7.78;5.45;;;17.00;99.90;;;;;;5046979;28;20224;-73
2023/08/11 04:46:03;;;;;;;14.93;5.68;;;17.00;99.90;;;;;;5048051;28;20224;-77
2023/08/11 04:48:57;;;;;;;9.13;4.90;;;17.10;99.90;;;;;;5054891;28;20220;-78
2023/08/11 04:51:46;;;;;;;9.57;5.43;;;17.10;99.90;;;;;;5051275;28;21054;-73
2023/08/11 04:54:36;;;;;;;10.75;5.50;;;17.20;99.90;;;;;;5044453;28;20277;-73
2023/08/11 04:57:24;;;;;;;7.55;5.32;;;17.20;99.90;;;;;;5040774;28;20224;-72
2023/08/11 05:00:16;;;;;;;7.35;5.60;;;17.30;99.90;;;;;;5056386;28;20222;-72
2023/08/11 05:03:06;;;;;;;8.45;5.32;;;17.40;99.90;;;;;;5069067;28;20483;-72
2023/08/11 05:05:58;;;;;;;11.13;5.60;;;17.40;99.90;;;;;;5045410;28;20228;-79
2023/08/11 05:08:47;;;;;;;7.43;5.18;;;17.60;99.90;;;;;;5055164;28;20240;-78
2023/08/11 05:11:36;;;;;;;15.23;5.78;;;17.70;99.90;;;;;;5062204;28;20683;-78
2023/08/11 05:14:25;;;;;;;9.25;5.10;;;17.80;99.90;;;;;;5083395;28;20251;-83
2023/08/11 05:17:13;;;;;;;6.97;5.35;;;18.10;99.90;;;;;;5074942;28;20602;-78
2023/08/11 05:20:06;;;;;;;10.75;5.50;;;18.10;99.90;;;;;;5071638;28;20231;-74
2023/08/11 05:22:57;;;;;;;11.65;5.88;;;18.30;99.90;;;;;;5069239;28;20223;-74
2023/08/11 05:25:46;;;;;;;8.88;5.70;;;18.30;99.90;;;;;;5092550;27;20456;-73
2023/08/11 05:28:35;;;;;;;8.77;5.93;;;18.40;99.90;;;;;;5085625;28;20250;-73
2023/08/11 05:31:24;;;;;;;14.32;6.72;;;18.50;99.90;;;;;;5078196;28;21165;-76
2023/08/11 05:34:13;;;;;;;9.30;5.45;;;18.50;99.90;;;;;;5067218;28;20295;-77
2023/08/11 05:37:03;;;;;;;12.23;5.90;;;18.70;99.90;;;;;;5071046;28;20223;-74
2023/08/11 05:39:54;;;;;;;13.82;5.68;;;18.80;99.90;;;;;;5077110;28;20223;-76
2023/08/11 05:42:43;;;;;;;12.38;5.75;;;18.80;99.90;;;;;;5065715;28;20222;-73
2023/08/11 05:45:31;;;;;;;9.80;5.50;;;19.00;99.90;;;;;;5079167;28;20247;-74
2023/08/11 05:48:21;;;;;;;11.43;4.97;;;19.10;99.90;;;;;;5070396;28;20460;-74
2023/08/11 05:51:10;;;;;;;11.20;5.30;;;19.60;99.90;;;;;;5077865;28;20231;-76
2023/08/11 05:53:58;;;;;;;12.02;5.28;;;19.60;99.90;;;;;;5069958;28;20276;-73
2023/08/11 05:56:52;;;;;;;10.68;4.82;;;19.50;99.90;;;;;;5095610;28;20219;-81
2023/08/11 05:59:41;;;;;;;12.00;5.47;;;19.60;99.90;;;;;;5076921;28;20325;-74
2023/08/11 06:02:30;;;;;;;10.15;5.25;;;19.50;99.90;;;;;;5090186;27;20223;-70
2023/08/11 06:05:21;;;;;;;10.65;5.18;;;19.60;99.90;;;;;;5071298;28;20223;-71
2023/08/11 06:08:10;;;;;;;11.43;5.30;;;19.70;99.90;;;;;;5085417;28;20417;-85
2023/08/11 06:10:59;;;;;;;10.38;5.20;;;19.70;99.90;;;;;;5092462;27;20223;-75
2023/08/11 06:13:52;;;;;;;9.77;6.03;;;19.70;99.90;;;;;;5081952;28;20280;-78
2023/08/11 06:16:41;;;;;;;13.27;4.57;;;19.80;99.90;;;;;;5079171;28;20227;-80
2023/08/11 06:19:30;;;;;;;9.77;4.65;;;19.90;99.90;;;;;;5082401;28;20240;-80
2023/08/11 06:22:19;;;;;;;12.25;4.72;;;19.80;99.90;;;;;;5083833;28;20228;-81
2023/08/11 06:25:08;;;;;;;10.70;4.32;;;19.90;99.90;;;;;;5083350;28;20302;-81
2023/08/11 06:27:57;;;;;;;8.77;4.70;;;20.10;99.90;;;;;;5092143;27;20219;-81
2023/08/11 06:30:47;;;;;;;10.65;3.78;;;20.10;99.90;;;;;;5083858;28;20230;-81
2023/08/11 06:33:37;;;;;;;9.68;3.78;;;20.50;99.90;;;;;;5080162;28;20305;-81
2023/08/11 06:36:26;;;;;;;7.22;4.00;;;22.00;99.90;;;;;;5084545;28;20227;-81
2023/08/11 06:39:15;;;;;;;7.70;3.67;;;22.20;99.90;;;;;;5083080;28;20216;-82
2023/08/11 06:42:04;;;;;;;11.13;3.78;;;21.90;99.90;;;;;;5071645;28;20226;-81
2023/08/11 06:45:12;;;;;;;8.18;3.97;;;21.60;99.90;;;;;;5077286;28;20219;-82
2023/08/11 06:48:03;;;;;;;9.23;3.38;;;21.30;99.90;;;;;;5078031;28;20634;-82
2023/08/11 06:50:52;;;;;;;11.57;3.53;;;21.30;99.90;;;;;;5082876;28;20231;-81
2023/08/11 06:53:41;;;;;;;13.43;3.38;;;21.40;99.90;;;;;;5099313;27;20326;-81
2023/08/11 06:56:30;;;;;;;6.80;2.72;;;21.30;99.90;;;;;;5072325;28;20313;-81
2023/08/11 06:59:19;;;;;;;10.23;3.10;;;21.30;99.90;;;;;;5071172;28;20287;-81
2023/08/11 07:02:08;;;;;;;8.40;2.53;;;21.40;99.90;;;;;;5084932;28;20219;-81
2023/08/11 07:04:59;;;;;;;6.95;2.70;;;21.50;99.90;;;;;;5086754;28;20227;-81
2023/08/11 07:07:48;;;;;;;6.35;2.72;;;21.50;99.90;;;;;;5108739;28;20225;-81
2023/08/11 07:10:37;;;;;;;9.85;2.60;;;21.60;99.90;;;;;;5068589;28;20238;-81
2023/08/11 07:13:26;;;;;;;7.22;2.40;;;21.70;99.90;;;;;;5056144;28;20763;-81
2023/08/11 07:16:15;;;;;;;7.03;2.45;;;21.80;99.90;;;;;;5065837;28;20277;-81
2023/08/11 07:19:04;;;;;;;4.78;2.42;;;22.00;99.90;;;;;;5040160;28;20303;-79
2023/08/11 07:21:55;;;;;;;6.90;2.55;;;22.10;99.90;;;;;;5066293;28;20315;-82
2023/08/11 07:24:44;;;;;;;9.18;2.60;;;22.30;99.90;;;;;;5060077;28;20228;-82
2023/08/11 07:27:33;;;;;;;7.60;2.40;;;22.30;99.90;;;;;;5062965;28;20227;-82
2023/08/11 07:30:22;;;;;;;3.88;2.22;;;22.50;99.90;;;;;;5063499;28;20249;-82
2023/08/11 07:33:11;;;;;;;4.70;2.10;;;22.60;99.90;;;;;;5058929;28;20682;-82
2023/08/11 07:36:00;;;;;;;3.92;1.90;;;22.70;99.90;;;;;;5064355;28;20364;-81
2023/08/11 07:38:50;;;;;;;6.28;2.00;;;22.80;99.90;;;;;;5060968;28;20296;-84
2023/08/11 07:41:41;;;;;;;3.35;1.88;;;23.10;99.90;;;;;;5072398;28;20226;-82
2023/08/11 07:44:30;;;;;;;3.85;2.13;;;23.40;99.90;;;;;;5060497;28;20224;-82
2023/08/11 07:47:20;;;;;;;5.68;2.13;;;23.60;99.90;;;;;;5050402;28;20231;-83
2023/08/11 07:50:10;;;;;;;11.18;2.10;;;23.80;99.90;;;;;;5046301;28;20329;-85
2023/08/11 07:52:58;;;;;;;7.47;2.08;;;24.10;99.90;;;;;;5056681;28;20236;-82
2023/08/11 07:55:49;;;;;;;5.25;2.30;;;24.30;99.90;;;;;;5074760;28;20220;-82
2023/08/11 07:58:38;;;;;;;7.85;2.70;;;24.50;99.90;;;;;;5061208;28;20220;-83
2023/08/11 08:01:27;;;;;;;4.88;2.53;;;24.50;99.20;;;;;;5046058;28;20243;-82
2023/08/11 08:04:17;;;;;;;6.13;2.33;;;24.60;97.00;;;;;;5051636;28;20648;-83
2023/08/11 08:07:06;;;;;;;3.33;1.90;;;25.00;98.80;;;;;;5077548;28;20602;-82
2023/08/11 08:09:56;;;;;;;6.03;1.98;;;25.40;99.90;;;;;;5045601;28;20231;-83
2023/08/11 08:12:46;;;;;;;3.50;1.90;;;25.90;98.90;;;;;;5077856;28;20231;-83
2023/08/11 08:15:37;;;;;;;4.60;1.90;;;26.00;94.90;;;;;;5081391;28;20219;-83
2023/08/11 08:18:26;;;;;;;5.45;2.00;;;26.20;95.20;;;;;;5064986;28;20683;-83
2023/08/11 08:21:16;;;;;;;3.78;1.90;;;26.10;92.20;;;;;;5071480;28;20215;-82
2023/08/11 08:24:05;;;;;;;6.57;2.05;;;26.50;95.80;;;;;;5069758;28;20311;-81
2023/08/11 08:26:55;;;;;;;5.88;2.10;;;26.70;91.10;;;;;;5070595;28;20220;-82
2023/08/11 08:29:45;;;;;;;3.00;1.83;;;27.10;93.10;;;;;;5069153;28;20223;-82
2023/08/11 08:32:34;;;;;;;7.50;1.95;;;27.40;92.90;;;;;;5091800;28;20219;-82
2023/08/11 08:35:23;;;;;;;7.63;2.63;;;27.80;92.40;;;;;;5087829;28;20264;-81
2023/08/11 08:38:12;;;;;;;7.85;1.90;;;27.80;84.60;;;;;;5089102;28;20220;-82
2023/08/11 08:41:01;;;;;;;3.25;1.70;;;28.00;89.90;;;;;;5070522;28;20218;-83
2023/08/11 08:43:51;;;;;;;2.60;1.60;;;28.60;87.30;;;;;;5081104;28;20211;-82
2023/08/11 08:46:48;;;;;;;8.30;2.40;;;28.80;87.80;;;;;;5068754;28;20738;-82
2023/08/11 08:49:37;;;;;;;7.07;2.28;;;28.80;80.60;;;;;;5088586;28;20235;-82
2023/08/11 08:52:27;;;;;;;3.05;1.80;;;28.40;77.70;;;;;;5084563;28;20219;-82
2023/08/11 08:55:16;;;;;;;5.00;1.98;;;28.60;78.20;;;;;;5075860;28;20257;-82
2023/08/11 08:58:06;;;;;;;4.03;2.00;;;28.60;78.20;;;;;;5083280;28;20215;-83
2023/08/11 09:00:55;;;;;;;4.07;2.03;;;28.80;81.10;;;;;;5085165;28;20505;-84
2023/08/11 09:03:47;;;;;;;4.80;1.90;;;29.70;84.00;;;;;;5064751;28;20246;-78
2023/08/11 09:06:38;;;;;;;5.75;1.95;;;29.60;75.00;;;;;;5078161;28;20226;-78
2023/08/11 09:09:28;;;;;;;4.75;1.90;;;29.50;75.50;;;;;;5075059;28;20227;-78
2023/08/11 09:12:17;;;;;;;5.15;2.70;;;29.10;74.50;;;;;;5083003;28;20824;-73
2023/08/11 09:15:09;;;;;;;4.57;1.90;;;29.30;75.20;;;;;;5063783;28;20222;-72
2023/08/11 09:18:00;;;;;;;3.50;1.92;;;29.80;73.80;;;;;;5068544;28;20276;-72
2023/08/11 09:20:51;;;;;;;5.05;1.88;;;30.40;77.90;;;;;;5086475;28;20231;-73
2023/08/11 09:23:43;;;;;;;7.70;2.67;;;30.80;77.20;;;;;;5094462;27;20235;-74
2023/08/11 09:26:32;;;;;;;3.53;2.00;;;30.70;73.30;;;;;;5078384;28;20215;-73
2023/08/11 09:29:21;;;;;;;4.00;2.08;;;30.80;72.90;;;;;;5070901;28;20301;-74
2023/08/11 09:32:11;;;;;;;5.03;2.30;;;31.50;73.90;;;;;;5081785;28;20242;-74
2023/08/11 09:35:07;;;;;;;11.27;2.80;;;31.80;67.00;;;;;;5085049;28;20233;-73
2023/08/11 09:37:57;;;;;;;4.93;2.10;;;31.70;68.70;;;;;;5083270;28;20594;-75
2023/08/11 09:40:47;;;;;;;6.20;2.03;;;32.50;69.40;;;;;;5083149;28;20606;-78
2023/08/11 09:43:37;;;;;;;4.60;1.70;;;32.50;68.50;;;;;;5080654;28;20253;-80
2023/08/11 09:46:26;;;;;;;6.50;2.70;;;33.10;70.40;;;;;;5079123;28;20690;-82
2023/08/11 09:49:17;;;;;;;10.73;2.53;;;33.50;68.90;;;;;;5084357;28;20249;-79
2023/08/11 09:52:07;;;;;;;4.95;2.20;;;33.50;63.70;;;;;;5081330;28;20254;-78
2023/08/11 09:54:59;;;;;;;4.90;1.77;;;34.30;66.40;;;;;;5084576;28;20215;-79
2023/08/11 09:57:49;;;;;;;5.68;2.60;;;34.90;60.90;;;;;;5072000;28;20223;-80
2023/08/11 10:00:40;;;;;;;9.57;2.95;;;35.20;64.20;;;;;;5072794;28;20578;-86
2023/08/11 10:03:34;;;;;;;3.55;2.00;;;36.10;57.50;;;;;;5086023;28;20562;-82
2023/08/11 10:06:27;;;;;;;3.00;1.75;;;36.30;58.40;;;;;;5075669;28;20219;-81
2023/08/11 10:09:21;;;;;;;4.18;1.80;;;36.90;57.00;;;;;;5084753;28;20215;-85
2023/08/11 10:12:13;;;;;;;4.57;2.00;;;37.50;54.50;;;;;;5090558;28;20716;-83
2023/08/11 10:15:03;;;;;;;5.05;2.00;;;36.50;54.00;;;;;;5088974;28;20781;-83
2023/08/11 10:17:52;;;;;;;4.35;1.60;;;37.30;56.00;;;;;;5089885;28;20226;-84
2023/08/11 10:20:42;;;;;;;27.80;3.67;;;37.90;51.90;;;;;;5082355;28;20255;-80
2023/08/11 10:23:33;;;;;;;9.90;2.92;;;38.00;53.20;;;;;;5085386;28;20245;-77
2023/08/11 10:26:24;;;;;;;4.97;2.08;;;38.40;54.30;;;;;;5090466;28;20286;-77
2023/08/11 10:29:14;;;;;;;4.32;1.90;;;39.40;51.80;;;;;;5094685;28;20218;-77
2023/08/11 10:32:03;;;;;;;3.90;1.60;;;39.90;50.60;;;;;;5087233;28;20229;-80
2023/08/11 10:34:52;;;;;;;12.82;2.85;;;39.50;52.20;;;;;;5093173;28;20223;-74
2023/08/11 10:37:41;;;;;;;8.63;2.20;;;39.50;49.10;;;;;;5085120;28;20235;-76
2023/08/11 10:40:39;;;;;;;2.65;1.70;;;36.00;54.60;;;;;;5095053;28;20227;-79
2023/08/11 10:43:33;;;;;;;3.97;1.80;;;37.80;55.20;;;;;;5096597;28;20215;-79
2023/08/11 10:46:25;;;;;;;3.55;2.03;;;35.30;56.70;;;;;;5082141;28;20248;-75
2023/08/11 10:49:33;;;;;;;4.05;1.75;;;37.20;53.00;;;;;;5083158;28;20602;-78
2023/08/11 10:52:23;;;;;;;4.57;1.77;;;39.80;53.60;;;;;;5086443;28;20231;-78
2023/08/11 10:55:12;;;;;;;3.42;1.77;;;41.20;51.10;;;;;;5084834;28;20230;-79
2023/08/11 10:58:15;;;;;;;3.42;1.80;;;41.90;49.50;;;;;;5071524;28;20234;-79
2023/08/11 11:01:03;;;;;;;4.25;1.90;;;40.20;47.50;;;;;;5077943;28;20222;-80
2023/08/11 11:03:55;;;;;;;2.80;1.73;;;39.70;50.20;;;;;;5062692;28;20277;-80
2023/08/11 11:06:45;;;;;;;4.30;1.35;;;37.40;48.80;;;;;;5088784;28;20340;-79
2023/08/11 11:09:34;;;;;;;3.55;1.70;;;40.40;48.60;;;;;;5069577;28;20868;-79
2023/08/11 11:12:23;;;;;;;3.63;1.83;;;41.60;44.80;;;;;;5065314;28;20238;-78
2023/08/11 11:15:12;;;;;;;7.50;1.95;;;42.20;49.40;;;;;;5061565;28;20691;-78
2023/08/11 11:18:02;;;;;;;3.42;1.80;;;42.90;43.20;;;;;;5059997;28;20495;-77
2023/08/11 11:20:54;;;;;;;6.22;2.30;;;42.20;42.80;;;;;;5058768;28;20224;-71
2023/08/11 11:23:45;;;;;;;4.28;1.70;;;42.30;41.60;;;;;;5058364;28;20231;-72
2023/08/11 11:26:34;;;;;;;7.38;2.70;;;42.10;43.50;;;;;;5063344;28;20245;-77
2023/08/11 11:29:23;;;;;;;3.28;1.60;;;43.80;44.30;;;;;;5057038;28;20232;-76
2023/08/11 11:32:13;;;;;;;2.83;1.60;;;45.30;44.00;;;;;;5055879;28;20236;-75
2023/08/11 11:35:03;;;;;;;3.03;1.90;;;41.30;44.40;;;;;;5063464;28;20231;-75
2023/08/11 11:37:53;;;;;;;15.13;3.92;;;38.90;45.40;;;;;;5039989;28;20215;-78
2023/08/11 11:40:42;;;;;;;9.35;2.60;;;38.90;44.40;;;;;;5064925;28;20860;-76
2023/08/11 11:43:31;;;;;;;4.03;1.60;;;36.60;48.20;;;;;;5045680;28;20231;-76
2023/08/11 11:46:22;;;;;;;7.60;2.35;;;38.50;45.40;;;;;;5039164;28;20231;-75
2023/08/11 11:49:16;;;;;;;4.43;1.90;;;37.00;46.80;;;;;;5046532;28;20596;-72
2023/08/11 11:52:18;;;;;;;4.53;1.90;;;34.30;50.80;;;;;;5060619;28;20230;-72
2023/08/11 11:55:09;;;;;;;3.63;1.80;;;32.30;53.40;;;;;;5073561;28;20224;-77
2023/08/11 11:57:59;;;;;;;3.97;2.20;;;31.10;56.30;;;;;;5073827;28;20216;-76
2023/08/11 12:00:48;;;;;;;4.38;2.40;;;33.40;56.10;;;;;;5065334;28;20229;-76
2023/08/11 12:03:37;;;;;;;5.18;2.58;;;36.70;55.00;;;;;;5069898;28;20223;-77
2023/08/11 12:06:28;;;;;;;9.25;4.43;;;35.30;49.60;;;;;;5042326;28;20622;-70
2023/08/11 12:09:19;;;;;;;3.75;2.42;;;38.50;52.00;;;;;;5040864;28;20227;-70
2023/08/11 12:12:09;;;;;;;10.88;2.65;;;42.50;47.10;;;;;;5067748;28;20219;-70
2023/08/11 12:15:02;;;;;;;6.82;1.80;;;36.60;46.20;;;;;;5085806;28;20262;-70
2023/08/11 12:17:53;;;;;;;4.20;2.00;;;33.80;50.30;;;;;;5057698;28;20238;-70
2023/08/11 12:20:42;;;;;;;4.38;2.17;;;38.90;49.50;;;;;;5064959;28;20845;-70
2023/08/11 12:23:32;;;;;;;6.85;1.88;;;43.00;45.40;;;;;;5063005;28;20234;-70
2023/08/11 12:26:21;;;;;;;4.32;2.03;;;46.10;42.10;;;;;;5064778;28;20671;-70
2023/08/11 12:29:11;;;;;;;2.42;1.80;;;46.80;41.90;;;;;;5064727;28;20400;-70
2023/08/11 12:32:00;;;;;;;4.50;1.60;;;44.10;40.50;;;;;;5082369;28;20610;-70
2023/08/11 12:34:50;;;;;;;5.10;1.70;;;38.10;42.90;;;;;;5080829;28;20222;-70
2023/08/11 12:37:39;;;;;;;6.70;2.20;;;34.90;45.80;;;;;;5085531;28;20223;-70
2023/08/11 12:40:30;;;;;;;7.00;1.92;;;32.70;49.50;;;;;;5074047;28;20288;-70
2023/08/11 12:43:19;;;;;;;1.88;1.65;;;31.10;53.40;;;;;;5076334;28;20230;-70
2023/08/11 12:46:10;;;;;;;2.95;1.70;;;30.40;55.40;;;;;;5062859;28;20219;-68
2023/08/11 12:48:59;;;;;;;6.75;2.55;;;29.90;56.90;;;;;;5068702;28;20640;-71
2023/08/11 12:51:51;;;;;;;3.55;1.98;;;29.60;56.20;;;;;;5078213;28;20341;-69
2023/08/11 12:54:40;;;;;;;7.80;2.20;;;29.10;59.90;;;;;;5076703;28;20711;-72
2023/08/11 12:57:29;;;;;;;4.63;2.22;;;28.70;61.90;;;;;;5076915;28;20222;-70
2023/08/11 13:00:18;;;;;;;9.02;2.25;;;28.40;61.50;;;;;;5081746;28;20850;-72
2023/08/11 13:03:09;;;;;;;5.65;2.40;;;28.40;58.80;;;;;;5076840;28;20249;-71
2023/08/11 13:05:58;;;;;;;17.13;3.97;;;28.30;61.30;;;;;;5079589;28;20226;-74
2023/08/11 13:08:49;;;;;;;3.75;1.92;;;28.30;61.60;;;;;;5060615;28;20257;-74
2023/08/11 13:11:38;;;;;;;2.92;2.00;;;28.00;62.50;;;;;;5074178;28;20716;-71
2023/08/11 13:14:28;;;;;;;3.00;2.15;;;28.00;65.00;;;;;;5080190;28;20222;-72
2023/08/11 13:17:17;;;;;;;10.23;3.20;;;27.90;62.70;;;;;;5074622;28;20531;-77
2023/08/11 13:20:09;;;;;;;4.38;2.40;;;27.80;62.60;;;;;;5056192;28;20220;-70
2023/08/11 13:22:58;;;;;;;13.77;3.28;;;27.60;64.20;;;;;;5082023;28;20581;-70
2023/08/11 13:25:47;;;;;;;4.88;2.92;;;27.60;60.60;;;;;;5084959;28;20599;-70
2023/08/11 13:28:36;;;;;;;4.38;2.90;;;27.40;62.30;;;;;;5082579;28;20306;-71
2023/08/11 13:31:25;;;;;;;5.25;2.65;;;27.50;63.30;;;;;;5076335;28;20686;-72
2023/08/11 13:34:14;;;;;;;4.53;3.25;;;27.40;64.00;;;;;;5080710;28;20778;-71
2023/08/11 13:37:04;;;;;;;3.78;2.20;;;27.60;66.80;;;;;;5081311;28;20343;-70
2023/08/11 13:39:53;;;;;;;5.10;2.53;;;27.50;64.40;;;;;;5087862;28;21019;-72
2023/08/11 13:42:42;;;;;;;5.78;2.42;;;27.20;64.30;;;;;;5083747;28;20213;-73
2023/08/11 13:45:31;;;;;;;4.93;2.42;;;27.20;66.40;;;;;;5066116;28;20235;-73
2023/08/11 13:48:23;;;;;;;2.95;2.47;;;27.00;65.00;;;;;;5079979;28;20242;-72
2023/08/11 13:51:12;;;;;;;23.15;3.63;;;26.80;66.00;;;;;;5068986;28;20215;-70
2023/08/11 13:54:05;;;;;;;6.28;2.25;;;26.60;65.30;;;;;;5082659;28;20695;-70
2023/08/11 13:56:54;;;;;;;33.65;7.30;;;26.60;65.80;;;;;;5072620;28;20219;-71
2023/08/11 13:59:42;;;;;;;6.03;2.80;;;26.80;65.40;;;;;;5083202;28;20230;-71
2023/08/11 14:02:31;;;;;;;4.78;3.05;;;26.80;65.40;;;;;;5077606;28;20436;-71
2023/08/11 14:05:20;;;;;;;5.90;3.40;;;26.80;65.90;;;;;;5088260;27;20778;-71
2023/08/11 14:08:10;;;;;;;4.45;3.08;;;26.60;67.60;;;;;;5078770;28;20234;-71
2023/08/11 14:11:00;;;;;;;3.90;2.72;;;26.40;66.70;;;;;;5082927;28;20334;-71
2023/08/11 14:13:49;;;;;;;11.20;3.40;;;26.30;67.20;;;;;;5070865;28;20230;-71
2023/08/11 14:16:38;;;;;;;11.23;3.58;;;26.30;68.10;;;;;;5067430;28;20352;-71
2023/08/11 14:19:27;;;;;;;7.55;3.65;;;26.40;70.50;;;;;;5072033;28;20215;-71
2023/08/11 14:22:16;;;;;;;12.32;3.30;;;26.50;70.70;;;;;;5084082;28;20230;-73
2023/08/11 14:25:06;;;;;;;5.65;3.45;;;26.40;68.80;;;;;;5075671;28;20226;-72
2023/08/11 14:27:56;;;;;;;5.05;2.53;;;26.30;69.20;;;;;;5082953;28;20917;-70
2023/08/11 14:30:46;;;;;;;5.22;2.70;;;25.90;67.80;;;;;;5063688;28;20694;-70
2023/08/11 14:33:35;;;;;;;4.00;2.70;;;26.00;69.50;;;;;;5099094;27;20222;-73
2023/08/11 14:36:23;;;;;;;4.93;2.42;;;26.00;69.80;;;;;;5083976;28;20338;-72
2023/08/11 14:39:12;;;;;;;4.78;2.78;;;25.90;70.30;;;;;;5085313;28;20710;-72
2023/08/11 14:42:01;;;;;;;3.85;2.22;;;25.90;68.90;;;;;;5069274;28;20226;-71